RYR90RR LGKR-LIME
Flight info
| Callsign | RYR90RR |
|---|---|
| Flight time | N/A |
| Altitude | 36000 |
| Route | OLGAT DCT OKIMO DCT ENOXA DCT GARGA DCT ANC DCT BOA DCT OGPUD DCT BETMU DCT OSBUL |
| Aircraft | B738/M-SDE2E3FGHIRWXY/LB1 |
Departure
| Time | 2026-04-28 18:08 |
|---|---|
| Airport | Corfu Ioannis Kapodistrias International Airport (LGKR) |
Arrival
| Time | N/A |
|---|---|
| Airport | Il Caravaggio International Airport (LIME) |
| Time | Latitude | Longitude | Altitude | Speed | Heading |
|---|---|---|---|---|---|
| 2026-04-28 17:55 | 39.60629 | 19.91362 | 10 ft | 0 kts | 79° |
| 2026-04-28 18:03 | 39.60625 | 19.91332 | 9 ft | 4 kts | 77° |
| 2026-04-28 18:03 | 39.60615 | 19.91300 | 8 ft | 4 kts | 50° |
| 2026-04-28 18:03 | 39.60598 | 19.91285 | 9 ft | 4 kts | 345° |
| 2026-04-28 18:04 | 39.60587 | 19.91291 | 8 ft | 1 kts | 319° |
| 2026-04-28 18:04 | 39.60586 | 19.91292 | 10 ft | 0 kts | 319° |
| 2026-04-28 18:05 | 39.60587 | 19.91291 | 8 ft | 1 kts | 319° |
| 2026-04-28 18:06 | 39.60605 | 19.91271 | 10 ft | 6 kts | 319° |
| 2026-04-28 18:06 | 39.60652 | 19.91228 | 8 ft | 10 kts | 342° |
| 2026-04-28 18:06 | 39.60738 | 19.91206 | 8 ft | 15 kts | 348° |
| 2026-04-28 18:06 | 39.60851 | 19.91176 | 8 ft | 18 kts | 349° |
| 2026-04-28 18:07 | 39.60986 | 19.91143 | 8 ft | 21 kts | 349° |
| 2026-04-28 18:07 | 39.61043 | 19.91061 | 9 ft | 15 kts | 229° |
| 2026-04-28 18:07 | 39.60948 | 19.91020 | 8 ft | 22 kts | 169° |
| 2026-04-28 18:07 | 39.60546 | 19.91123 | 7 ft | 95 kts | 169° |
| 2026-04-28 18:08 | 39.59679 | 19.91347 | 15 ft | 156 kts | 168° |
| 2026-04-28 18:08 | 39.58542 | 19.91605 | 574 ft | 166 kts | 168° |
| 2026-04-28 18:08 | 39.57502 | 19.92271 | 1232 ft | 176 kts | 128° |
| 2026-04-28 18:08 | 39.57114 | 19.93870 | 1597 ft | 203 kts | 88° |
| 2026-04-28 18:09 | 39.57481 | 19.95718 | 1836 ft | 225 kts | 52° |
| 2026-04-28 18:09 | 39.58758 | 19.96902 | 2147 ft | 238 kts | 14° |
| 2026-04-28 18:09 | 39.60458 | 19.96839 | 2463 ft | 255 kts | 340° |
| 2026-04-28 18:09 | 39.61966 | 19.95627 | 3242 ft | 260 kts | 317° |
| 2026-04-28 18:10 | 39.63206 | 19.93902 | 4067 ft | 263 kts | 310° |
| 2026-04-28 18:10 | 39.64377 | 19.92066 | 4928 ft | 266 kts | 308° |
| 2026-04-28 18:10 | 39.65538 | 19.90215 | 5687 ft | 271 kts | 308° |
| 2026-04-28 18:10 | 39.66746 | 19.88306 | 6433 ft | 276 kts | 309° |
| 2026-04-28 18:11 | 39.67983 | 19.86373 | 7192 ft | 280 kts | 309° |
| 2026-04-28 18:11 | 39.69243 | 19.84425 | 7958 ft | 283 kts | 310° |
| 2026-04-28 18:11 | 39.70527 | 19.82453 | 8656 ft | 290 kts | 310° |
| 2026-04-28 18:11 | 39.71845 | 19.80442 | 9408 ft | 294 kts | 310° |
| 2026-04-28 18:12 | 39.73174 | 19.78421 | 10232 ft | 295 kts | 310° |
| 2026-04-28 18:12 | 39.74543 | 19.76343 | 10580 ft | 314 kts | 310° |
| 2026-04-28 18:12 | 39.76017 | 19.74111 | 10762 ft | 337 kts | 310° |
| 2026-04-28 18:12 | 39.77573 | 19.71755 | 11219 ft | 348 kts | 310° |
| 2026-04-28 18:13 | 39.79153 | 19.69363 | 11953 ft | 349 kts | 310° |
| 2026-04-28 18:13 | 39.80734 | 19.66969 | 12804 ft | 349 kts | 310° |
| 2026-04-28 18:13 | 39.82322 | 19.64563 | 13624 ft | 351 kts | 310° |
| 2026-04-28 18:13 | 39.83915 | 19.62149 | 14365 ft | 353 kts | 310° |
| 2026-04-28 18:14 | 39.85522 | 19.59711 | 15107 ft | 355 kts | 310° |
| 2026-04-28 18:14 | 39.87134 | 19.57264 | 15858 ft | 358 kts | 310° |
| 2026-04-28 18:14 | 39.88759 | 19.54797 | 16609 ft | 360 kts | 310° |
| 2026-04-28 18:14 | 39.90391 | 19.52316 | 17363 ft | 362 kts | 310° |
| 2026-04-28 18:15 | 39.92036 | 19.49814 | 18072 ft | 365 kts | 310° |
| 2026-04-28 18:15 | 39.93695 | 19.47287 | 18724 ft | 368 kts | 310° |
| 2026-04-28 18:15 | 39.95366 | 19.44741 | 19301 ft | 372 kts | 310° |
| 2026-04-28 18:15 | 39.97054 | 19.42166 | 19882 ft | 375 kts | 310° |
| 2026-04-28 18:16 | 39.98757 | 19.39567 | 20471 ft | 379 kts | 310° |
| 2026-04-28 18:16 | 40.00475 | 19.36942 | 21028 ft | 382 kts | 310° |
| 2026-04-28 18:16 | 40.02208 | 19.34292 | 21596 ft | 386 kts | 310° |
| 2026-04-28 18:16 | 40.03957 | 19.31616 | 22137 ft | 389 kts | 310° |
| 2026-04-28 18:17 | 40.05696 | 19.28953 | 22687 ft | 393 kts | 310° |
| 2026-04-28 18:17 | 40.07472 | 19.26231 | 23225 ft | 396 kts | 310° |
| 2026-04-28 18:17 | 40.09266 | 19.23477 | 23733 ft | 399 kts | 310° |
| 2026-04-28 18:17 | 40.11071 | 19.20706 | 24171 ft | 402 kts | 310° |
| 2026-04-28 18:18 | 40.12890 | 19.17909 | 24624 ft | 405 kts | 310° |
| 2026-04-28 18:18 | 40.14719 | 19.15096 | 25067 ft | 407 kts | 310° |
| 2026-04-28 18:18 | 40.16558 | 19.12263 | 25495 ft | 410 kts | 310° |
| 2026-04-28 18:18 | 40.17807 | 19.10339 | 25787 ft | 412 kts | 310° |
| 2026-04-28 18:19 | 40.20272 | 19.06536 | 26336 ft | 415 kts | 310° |
| 2026-04-28 18:19 | 40.22145 | 19.03645 | 26742 ft | 418 kts | 310° |
| 2026-04-28 18:19 | 40.24030 | 19.00733 | 27145 ft | 421 kts | 310° |
| 2026-04-28 18:19 | 40.25975 | 18.97859 | 27530 ft | 423 kts | 313° |
| 2026-04-28 18:20 | 40.28006 | 18.95052 | 27915 ft | 426 kts | 314° |
| 2026-04-28 18:20 | 40.30077 | 18.92265 | 28292 ft | 428 kts | 314° |
| 2026-04-28 18:20 | 40.32163 | 18.89471 | 28661 ft | 430 kts | 314° |
| 2026-04-28 18:20 | 40.34260 | 18.86652 | 29022 ft | 433 kts | 314° |
| 2026-04-28 18:21 | 40.36362 | 18.83810 | 29372 ft | 435 kts | 314° |
| 2026-04-28 18:21 | 40.38464 | 18.80952 | 29814 ft | 435 kts | 314° |
| 2026-04-28 18:21 | 40.40556 | 18.78095 | 30324 ft | 433 kts | 314° |
| 2026-04-28 18:21 | 40.42633 | 18.75250 | 30786 ft | 430 kts | 314° |
| 2026-04-28 18:22 | 40.44700 | 18.72415 | 31208 ft | 429 kts | 314° |
| 2026-04-28 18:22 | 40.46757 | 18.69588 | 31679 ft | 426 kts | 313° |
| 2026-04-28 18:22 | 40.48800 | 18.66779 | 32115 ft | 425 kts | 313° |
| 2026-04-28 18:22 | 40.50839 | 18.63973 | 32478 ft | 424 kts | 313° |
| 2026-04-28 18:23 | 40.52877 | 18.61166 | 32841 ft | 424 kts | 313° |
| 2026-04-28 18:23 | 40.54910 | 18.58364 | 33245 ft | 423 kts | 313° |
| 2026-04-28 18:23 | 40.56935 | 18.55570 | 33652 ft | 421 kts | 313° |
| 2026-04-28 18:23 | 40.58954 | 18.52782 | 34024 ft | 420 kts | 313° |
| 2026-04-28 18:24 | 40.60969 | 18.49996 | 34342 ft | 420 kts | 313° |
| 2026-04-28 18:24 | 40.62299 | 18.48157 | 34568 ft | 418 kts | 313° |
| 2026-04-28 18:24 | 40.64973 | 18.44455 | 35053 ft | 415 kts | 313° |
| 2026-04-28 18:24 | 40.66960 | 18.41700 | 35375 ft | 414 kts | 313° |
| 2026-04-28 18:25 | 40.68941 | 18.38952 | 35676 ft | 413 kts | 313° |
| 2026-04-28 18:25 | 40.70915 | 18.36211 | 35994 ft | 412 kts | 313° |
| 2026-04-28 18:26 | 40.76844 | 18.27961 | 36042 ft | 414 kts | 312° |
| 2026-04-28 18:26 | 40.80763 | 18.22496 | 36042 ft | 407 kts | 312° |
| 2026-04-28 18:27 | 40.84654 | 18.17060 | 36049 ft | 407 kts | 312° |
| 2026-04-28 18:27 | 40.88546 | 18.11611 | 36044 ft | 408 kts | 312° |
| 2026-04-28 18:28 | 40.92441 | 18.06150 | 36047 ft | 408 kts | 312° |
| 2026-04-28 18:28 | 40.96329 | 18.00677 | 36048 ft | 409 kts | 312° |
| 2026-04-28 18:29 | 41.00219 | 17.95175 | 36049 ft | 409 kts | 312° |
| 2026-04-28 18:29 | 41.04109 | 17.89663 | 36045 ft | 410 kts | 312° |
| 2026-04-28 18:30 | 41.07997 | 17.84146 | 36042 ft | 410 kts | 312° |
| 2026-04-28 18:30 | 41.11883 | 17.78620 | 36041 ft | 409 kts | 312° |
| 2026-04-28 18:31 | 41.15762 | 17.73095 | 36041 ft | 409 kts | 312° |
| 2026-04-28 18:31 | 41.19637 | 17.67565 | 36044 ft | 409 kts | 312° |
| 2026-04-28 18:32 | 41.23517 | 17.62043 | 36043 ft | 408 kts | 312° |
| 2026-04-28 18:32 | 41.27397 | 17.56534 | 36049 ft | 408 kts | 312° |
| 2026-04-28 18:33 | 41.31268 | 17.51025 | 36042 ft | 407 kts | 312° |
| 2026-04-28 18:33 | 41.35128 | 17.45517 | 36040 ft | 406 kts | 312° |
| 2026-04-28 18:34 | 41.38949 | 17.40054 | 36044 ft | 405 kts | 312° |
| 2026-04-28 18:34 | 41.42786 | 17.34558 | 36043 ft | 405 kts | 311° |
| 2026-04-28 18:35 | 41.46613 | 17.29066 | 36043 ft | 404 kts | 311° |
| 2026-04-28 18:35 | 41.50435 | 17.23569 | 36044 ft | 404 kts | 311° |
| 2026-04-28 18:36 | 41.54250 | 17.18074 | 36047 ft | 404 kts | 311° |
| 2026-04-28 18:36 | 41.58065 | 17.12568 | 36047 ft | 404 kts | 311° |
| 2026-04-28 18:37 | 41.61879 | 17.07054 | 36047 ft | 404 kts | 311° |
| 2026-04-28 18:37 | 41.65693 | 17.01528 | 36040 ft | 405 kts | 311° |
| 2026-04-28 18:38 | 41.69507 | 16.95993 | 36049 ft | 405 kts | 311° |
| 2026-04-28 18:38 | 41.73324 | 16.90441 | 36044 ft | 406 kts | 311° |
| 2026-04-28 18:39 | 41.77145 | 16.84875 | 36056 ft | 406 kts | 311° |
| 2026-04-28 18:39 | 41.80966 | 16.79298 | 36042 ft | 406 kts | 311° |
| 2026-04-28 18:40 | 41.84782 | 16.73717 | 36034 ft | 406 kts | 311° |
| 2026-04-28 18:40 | 41.88589 | 16.68139 | 36041 ft | 405 kts | 311° |
| 2026-04-28 18:41 | 41.92395 | 16.62552 | 36032 ft | 405 kts | 311° |
| 2026-04-28 18:41 | 41.96191 | 16.56969 | 36035 ft | 405 kts | 311° |
| 2026-04-28 18:42 | 41.99983 | 16.51381 | 36046 ft | 404 kts | 311° |
| 2026-04-28 18:42 | 42.03769 | 16.45792 | 36046 ft | 404 kts | 310° |
| 2026-04-28 18:43 | 42.07554 | 16.40193 | 36044 ft | 404 kts | 310° |
| 2026-04-28 18:43 | 42.11333 | 16.34590 | 36039 ft | 404 kts | 310° |
| 2026-04-28 18:44 | 42.15108 | 16.28984 | 36043 ft | 404 kts | 310° |
| 2026-04-28 18:44 | 42.20124 | 16.21518 | 36045 ft | 404 kts | 310° |
| 2026-04-28 18:45 | 42.23893 | 16.15898 | 36037 ft | 404 kts | 310° |
| 2026-04-28 18:45 | 42.27580 | 16.10193 | 36028 ft | 403 kts | 305° |
| 2026-04-28 18:46 | 42.30822 | 16.04022 | 36043 ft | 403 kts | 303° |
| 2026-04-28 18:46 | 42.33995 | 15.97777 | 36035 ft | 403 kts | 303° |
| 2026-04-28 18:47 | 42.37185 | 15.91539 | 36036 ft | 403 kts | 304° |
| 2026-04-28 18:47 | 42.40393 | 15.85308 | 36035 ft | 404 kts | 304° |
| 2026-04-28 18:48 | 42.43607 | 15.79073 | 36036 ft | 404 kts | 304° |
| 2026-04-28 18:48 | 42.46820 | 15.72831 | 36037 ft | 404 kts | 304° |
| 2026-04-28 18:49 | 42.49489 | 15.67638 | 36037 ft | 404 kts | 304° |
| 2026-04-28 18:49 | 42.53219 | 15.60364 | 36027 ft | 404 kts | 304° |
| 2026-04-28 18:50 | 42.56425 | 15.54096 | 36033 ft | 404 kts | 303° |
| 2026-04-28 18:50 | 42.59630 | 15.47818 | 36042 ft | 405 kts | 304° |
| 2026-04-28 18:51 | 42.62833 | 15.41529 | 36039 ft | 405 kts | 303° |
| 2026-04-28 18:51 | 42.66030 | 15.35240 | 36030 ft | 405 kts | 303° |
| 2026-04-28 18:52 | 42.69224 | 15.28944 | 36032 ft | 404 kts | 303° |
| 2026-04-28 18:52 | 42.72408 | 15.22653 | 36030 ft | 404 kts | 303° |
| 2026-04-28 18:53 | 42.75586 | 15.16362 | 36033 ft | 403 kts | 303° |
| 2026-04-28 18:53 | 42.78758 | 15.10070 | 36033 ft | 403 kts | 303° |
| 2026-04-28 18:54 | 42.81922 | 15.03780 | 36034 ft | 402 kts | 303° |
| 2026-04-28 18:54 | 42.85081 | 14.97486 | 36044 ft | 402 kts | 303° |
| 2026-04-28 18:55 | 42.88237 | 14.91185 | 36028 ft | 402 kts | 303° |
| 2026-04-28 18:55 | 42.91386 | 14.84885 | 36033 ft | 402 kts | 303° |
| 2026-04-28 18:56 | 42.94528 | 14.78585 | 36032 ft | 401 kts | 303° |
| 2026-04-28 18:56 | 42.97666 | 14.72280 | 36035 ft | 401 kts | 303° |
| 2026-04-28 18:57 | 43.00799 | 14.65971 | 36033 ft | 401 kts | 303° |
| 2026-04-28 18:57 | 43.03927 | 14.59660 | 36035 ft | 401 kts | 303° |
| 2026-04-28 18:58 | 43.07032 | 14.53382 | 36036 ft | 401 kts | 303° |
| 2026-04-28 18:58 | 43.10153 | 14.47058 | 36034 ft | 401 kts | 303° |
| 2026-04-28 18:59 | 43.13272 | 14.40723 | 36037 ft | 401 kts | 303° |
| 2026-04-28 18:59 | 43.16391 | 14.34376 | 36035 ft | 401 kts | 303° |
| 2026-04-28 19:00 | 43.19502 | 14.28031 | 36037 ft | 401 kts | 303° |
| 2026-04-28 19:00 | 43.22611 | 14.21677 | 36038 ft | 401 kts | 303° |
| 2026-04-28 19:01 | 43.25714 | 14.15321 | 36036 ft | 401 kts | 303° |
| 2026-04-28 19:01 | 43.28813 | 14.08960 | 36036 ft | 401 kts | 303° |
| 2026-04-28 19:02 | 43.31909 | 14.02592 | 36035 ft | 401 kts | 303° |
| 2026-04-28 19:02 | 43.35002 | 13.96216 | 36035 ft | 401 kts | 303° |
| 2026-04-28 19:03 | 43.38090 | 13.89835 | 36043 ft | 401 kts | 303° |
| 2026-04-28 19:03 | 43.41177 | 13.83442 | 36031 ft | 401 kts | 303° |
| 2026-04-28 19:04 | 43.44262 | 13.77040 | 36034 ft | 401 kts | 303° |
| 2026-04-28 19:04 | 43.47324 | 13.70673 | 36033 ft | 402 kts | 303° |
| 2026-04-28 19:05 | 43.50403 | 13.64256 | 36033 ft | 402 kts | 303° |
| 2026-04-28 19:05 | 43.53480 | 13.57829 | 36031 ft | 402 kts | 303° |
| 2026-04-28 19:06 | 43.56056 | 13.52439 | 36035 ft | 402 kts | 303° |
| 2026-04-28 19:06 | 43.59617 | 13.44932 | 36024 ft | 402 kts | 302° |
| 2026-04-28 19:07 | 43.62583 | 13.38384 | 36022 ft | 403 kts | 301° |
| 2026-04-28 19:07 | 43.65529 | 13.31804 | 36028 ft | 402 kts | 301° |
| 2026-04-28 19:08 | 43.68470 | 13.25241 | 36019 ft | 402 kts | 301° |
| 2026-04-28 19:08 | 43.71415 | 13.18674 | 36021 ft | 401 kts | 301° |
| 2026-04-28 19:09 | 43.74350 | 13.12122 | 36024 ft | 401 kts | 301° |
| 2026-04-28 19:09 | 43.77279 | 13.05570 | 36030 ft | 400 kts | 301° |
| 2026-04-28 19:10 | 43.80198 | 12.99025 | 36027 ft | 399 kts | 301° |
| 2026-04-28 19:10 | 43.83111 | 12.92477 | 36032 ft | 399 kts | 301° |
| 2026-04-28 19:11 | 43.86019 | 12.85926 | 36026 ft | 399 kts | 301° |
| 2026-04-28 19:11 | 43.88925 | 12.79367 | 36022 ft | 399 kts | 301° |
| 2026-04-28 19:12 | 43.91829 | 12.72797 | 36026 ft | 400 kts | 300° |
| 2026-04-28 19:12 | 43.94730 | 12.66217 | 36020 ft | 400 kts | 300° |
| 2026-04-28 19:13 | 43.97629 | 12.59628 | 36023 ft | 400 kts | 300° |
| 2026-04-28 19:13 | 44.00525 | 12.53029 | 36020 ft | 400 kts | 300° |
| 2026-04-28 19:14 | 44.03416 | 12.46428 | 36024 ft | 400 kts | 300° |
| 2026-04-28 19:14 | 44.06306 | 12.39815 | 36022 ft | 400 kts | 300° |
| 2026-04-28 19:15 | 44.09191 | 12.33195 | 36024 ft | 400 kts | 300° |
| 2026-04-28 19:15 | 44.11585 | 12.27691 | 36022 ft | 400 kts | 300° |
| 2026-04-28 19:16 | 44.14953 | 12.19932 | 36020 ft | 401 kts | 300° |
| 2026-04-28 19:16 | 44.17829 | 12.13288 | 36022 ft | 401 kts | 300° |